Maritime Instructor — WCW8625 — position and weather

sailwx.info

Track history (hours):
 
Tides and Currents Weather Stations Pressure Air Temp Water Temp Dewpoint Dewpoint Depression Visibility Wind Speed Wind Dir Waves Ship Positions

Maritime Instructor

Owner: WASHINGTON, STATE OF, SEATTLE, WA. More information available from US FCC via Universal Licensing System and Coast Guard Vessel Documentation Center.

Last reported at 2016-Feb-06 02:28 UTC. Time now 2016-Feb-06 18:41 UTC.
Position N 47°40' W 122°23'.

Length 30 m; draft 2 m.

Type: Ship. MMSI: 303556000.

Date/timePositionNaut miles runAvg speedWind from/ knotsBaromVisibWave heightAir tempDewpointWater temp
2016-Feb-06 02:28N 47°40' W 122°23'3 2.9
2016-Feb-06 01:33N 47°41' W 122°25'7 6.7
2016-Feb-06 00:33N 47°35' W 122°26'8 7.7
2016-Feb-05 23:33N 47°34' W 122°37'0 0.0
2016-Feb-05 22:33N 47°34' W 122°37'0 0.0
2016-Feb-05 21:33N 47°34' W 122°37'0 0.0
2016-Feb-05 20:34N 47°34' W 122°37'3 3.2
2016-Feb-05 19:33N 47°36' W 122°33'7 7.1
2016-Feb-05 18:33N 47°42' W 122°29'5 4.8
2016-Feb-05 17:33N 47°40' W 122°23'  
2016-Feb-03 02:33N 47°40' W 122°23'1 1.1
2016-Feb-03 01:33N 47°40' W 122°24'5 5.4
2016-Feb-03 00:33N 47°46' W 122°25'8 8.0
2016-Feb-02 23:33N 47°38' W 122°24'3 3.1
2016-Feb-02 22:33N 47°35' W 122°22'4 4.5
2016-Feb-02 21:34N 47°38' W 122°26'2 2.3
2016-Feb-02 20:33N 47°40' W 122°24'1 0.9
2016-Feb-02 19:33N 47°40' W 122°23'2 2.2
2016-Feb-02 18:33N 47°38' W 122°20'2 2.2
2016-Feb-02 17:33N 47°40' W 122°23'0 0.0
2016-Feb-02 16:33N 47°40' W 122°23'0 0.0
2016-Feb-02 15:34N 47°40' W 122°23'0 0.0
2016-Feb-02 14:31N 47°40' W 122°23'0 0.0
2016-Feb-02 13:33N 47°40' W 122°23'0 0.0
2016-Feb-02 12:33N 47°40' W 122°23'0 0.0
2016-Feb-02 11:33N 47°40' W 122°23'0 0.0
2016-Feb-02 10:33N 47°40' W 122°23'0 0.0
2016-Feb-02 09:33N 47°40' W 122°23'0 0.0
2016-Feb-02 08:33N 47°40' W 122°23'0 0.0
2016-Feb-02 07:33N 47°40' W 122°23'0 0.0
2016-Feb-02 06:33N 47°40' W 122°23'0 0.0
2016-Feb-02 05:33N 47°40' W 122°23'0 0.0
2016-Feb-02 04:33N 47°40' W 122°23'0 0.0
2016-Feb-02 03:33N 47°40' W 122°23'0 0.0
2016-Feb-02 02:33N 47°40' W 122°23'0 0.0
2016-Feb-02 01:33N 47°40' W 122°23'0 0.0
2016-Feb-02 00:33N 47°40' W 122°23'0 0.0
2016-Feb-01 23:33N 47°40' W 122°23'0 0.0
2016-Feb-01 22:31N 47°40' W 122°23'0 0.0
2016-Feb-01 21:34N 47°40' W 122°23'0 0.0
2016-Feb-01 20:30N 47°40' W 122°23'0 0.0
2016-Feb-01 19:33N 47°40' W 122°23'0 0.0
2016-Feb-01 18:33N 47°40' W 122°23'0 0.0
2016-Feb-01 17:33N 47°40' W 122°23'0 0.0
2016-Feb-01 16:33N 47°40' W 122°23'0 0.0
2016-Feb-01 15:34N 47°40' W 122°23'0 0.0
2016-Feb-01 14:33N 47°40' W 122°23'0 0.0
2016-Feb-01 13:31N 47°40' W 122°23'0 0.0
2016-Feb-01 12:33N 47°40' W 122°23'0 0.0
2016-Feb-01 11:33N 47°40' W 122°23'0 0.0
2016-Feb-01 10:33N 47°40' W 122°23'0 0.0
2016-Feb-01 09:33N 47°40' W 122°23'0 0.0
2016-Feb-01 08:33N 47°40' W 122°23'0 0.0
2016-Feb-01 07:33N 47°40' W 122°23'0 0.0
2016-Feb-01 06:33N 47°40' W 122°23'0 0.0
2016-Feb-01 05:33N 47°40' W 122°23'0 0.0
2016-Feb-01 04:31N 47°40' W 122°23'0 0.0
2016-Feb-01 03:33N 47°40' W 122°23'0 0.0
2016-Feb-01 02:33N 47°40' W 122°23'0 0.0
2016-Feb-01 01:33N 47°40' W 122°23'0 0.0
2016-Feb-01 00:33N 47°40' W 122°23'0 0.0
2016-Jan-31 23:33N 47°40' W 122°23'0 0.0
2016-Jan-31 22:33N 47°40' W 122°23'0 0.0
2016-Jan-31 21:33N 47°40' W 122°23'0 0.0
2016-Jan-31 20:33N 47°40' W 122°23'0 0.0
2016-Jan-31 19:33N 47°40' W 122°23'0 0.0
2016-Jan-31 18:33N 47°40' W 122°23'0 0.0
2016-Jan-31 17:33N 47°40' W 122°23'0 0.0
2016-Jan-31 16:33N 47°40' W 122°23'0 0.0
2016-Jan-31 15:33N 47°40' W 122°23'0 0.0
2016-Jan-31 14:33N 47°40' W 122°23'0 0.0
2016-Jan-31 13:33N 47°40' W 122°23'0 0.0
2016-Jan-31 12:33N 47°40' W 122°23'0 0.0
2016-Jan-31 11:33N 47°40' W 122°23'0 0.0
2016-Jan-31 10:33N 47°40' W 122°23'0 0.0
2016-Jan-31 09:33N 47°40' W 122°23'0 0.0
2016-Jan-31 08:33N 47°40' W 122°23'0 0.0
2016-Jan-31 07:33N 47°40' W 122°23'0 0.0
2016-Jan-31 06:33N 47°40' W 122°23'0 0.0
2016-Jan-31 05:33N 47°40' W 122°23'0 0.0
2016-Jan-31 04:33N 47°40' W 122°23'0 0.0
2016-Jan-31 03:33N 47°40' W 122°23'0 0.0
2016-Jan-31 02:33N 47°40' W 122°23'0 0.0
2016-Jan-31 01:33N 47°40' W 122°23'0 0.0
2016-Jan-31 00:33N 47°40' W 122°23'0 0.0
2016-Jan-30 23:33N 47°40' W 122°23'0 0.0
2016-Jan-30 22:33N 47°40' W 122°23'0 0.0
2016-Jan-30 21:33N 47°40' W 122°23'0 0.0
2016-Jan-30 20:33N 47°40' W 122°23'0 0.0
2016-Jan-30 19:33N 47°40' W 122°23'0 0.0
2016-Jan-30 18:33N 47°40' W 122°23'0 0.0
2016-Jan-30 17:31N 47°40' W 122°23'0 0.0
2016-Jan-30 16:33N 47°40' W 122°23'0 0.0
2016-Jan-30 15:33N 47°40' W 122°23'0 0.0
2016-Jan-30 14:33N 47°40' W 122°23'0 0.0
2016-Jan-30 13:33N 47°40' W 122°23'0 0.0
2016-Jan-30 12:33N 47°40' W 122°23'0 0.0
2016-Jan-30 11:33N 47°40' W 122°23'0 0.0
2016-Jan-30 10:34N 47°40' W 122°23'0 0.0
2016-Jan-30 09:33N 47°40' W 122°23'0 0.0
2016-Jan-30 08:33N 47°40' W 122°23'0 0.0
2016-Jan-30 07:33N 47°40' W 122°23'0 0.0
2016-Jan-30 06:34N 47°40' W 122°23'0 0.0
2016-Jan-30 05:33N 47°40' W 122°23'0 0.0
2016-Jan-30 04:33N 47°40' W 122°23'0 0.0
2016-Jan-30 03:33N 47°40' W 122°23'2 1.7
2016-Jan-30 02:33N 47°41' W 122°25'9 8.7
2016-Jan-30 01:33N 47°32' W 122°28'1312.0
2016-Jan-30 00:30N 47°19' W 122°29'3 2.9
2016-Jan-29 23:32N 47°22' W 122°28'0 0.1
2016-Jan-29 22:33N 47°22' W 122°28'3 2.7
2016-Jan-29 21:33N 47°23' W 122°32'1212.0
2016-Jan-29 20:33N 47°35' W 122°28'6 5.5
2016-Jan-29 19:33N 47°40' W 122°24'0 0.4
2016-Jan-29 18:32N 47°40' W 122°23'0 0.4
2016-Jan-29 17:33N 47°40' W 122°23'  
Track history (hours):
 
Tides and Currents Weather Stations Pressure Air Temp Water Temp Dewpoint Dewpoint Depression Visibility Wind Speed Wind Dir Waves Ship Positions

Maritime Instructor

Owner: WASHINGTON, STATE OF, SEATTLE, WA. More information available from US FCC via Universal Licensing System and Coast Guard Vessel Documentation Center.

Last reported at 2016-Feb-06 02:28 UTC. Time now 2016-Feb-06 18:41 UTC.
Position N 47°40' W 122°23'.

Length 30 m; draft 2 m.

Type: Ship. MMSI: 303556000.

Date/timePositionNaut miles runAvg speedWind from/ knotsBaromVisibWave heightAir tempDewpointWater temp
2016-Feb-06 02:28N 47°40' W 122°23'3 2.9
2016-Feb-06 01:33N 47°41' W 122°25'7 6.7
2016-Feb-06 00:33N 47°35' W 122°26'8 7.7
2016-Feb-05 23:33N 47°34' W 122°37'0 0.0
2016-Feb-05 22:33N 47°34' W 122°37'0 0.0
2016-Feb-05 21:33N 47°34' W 122°37'0 0.0
2016-Feb-05 20:34N 47°34' W 122°37'3 3.2
2016-Feb-05 19:33N 47°36' W 122°33'7 7.1
2016-Feb-05 18:33N 47°42' W 122°29'5 4.8
2016-Feb-05 17:33N 47°40' W 122°23'  
2016-Feb-03 02:33N 47°40' W 122°23'1 1.1
2016-Feb-03 01:33N 47°40' W 122°24'5 5.4
2016-Feb-03 00:33N 47°46' W 122°25'8 8.0
2016-Feb-02 23:33N 47°38' W 122°24'3 3.1
2016-Feb-02 22:33N 47°35' W 122°22'4 4.5
2016-Feb-02 21:34N 47°38' W 122°26'2 2.3
2016-Feb-02 20:33N 47°40' W 122°24'1 0.9
2016-Feb-02 19:33N 47°40' W 122°23'2 2.2
2016-Feb-02 18:33N 47°38' W 122°20'2 2.2
2016-Feb-02 17:33N 47°40' W 122°23'0 0.0
2016-Feb-02 16:33N 47°40' W 122°23'0 0.0
2016-Feb-02 15:34N 47°40' W 122°23'0 0.0
2016-Feb-02 14:31N 47°40' W 122°23'0 0.0
2016-Feb-02 13:33N 47°40' W 122°23'0 0.0
2016-Feb-02 12:33N 47°40' W 122°23'0 0.0
2016-Feb-02 11:33N 47°40' W 122°23'0 0.0
2016-Feb-02 10:33N 47°40' W 122°23'0 0.0
2016-Feb-02 09:33N 47°40' W 122°23'0 0.0
2016-Feb-02 08:33N 47°40' W 122°23'0 0.0
2016-Feb-02 07:33N 47°40' W 122°23'0 0.0
2016-Feb-02 06:33N 47°40' W 122°23'0 0.0
2016-Feb-02 05:33N 47°40' W 122°23'0 0.0
2016-Feb-02 04:33N 47°40' W 122°23'0 0.0
2016-Feb-02 03:33N 47°40' W 122°23'0 0.0
2016-Feb-02 02:33N 47°40' W 122°23'0 0.0
2016-Feb-02 01:33N 47°40' W 122°23'0 0.0
2016-Feb-02 00:33N 47°40' W 122°23'0 0.0
2016-Feb-01 23:33N 47°40' W 122°23'0 0.0
2016-Feb-01 22:31N 47°40' W 122°23'0 0.0
2016-Feb-01 21:34N 47°40' W 122°23'0 0.0
2016-Feb-01 20:30N 47°40' W 122°23'0 0.0
2016-Feb-01 19:33N 47°40' W 122°23'0 0.0
2016-Feb-01 18:33N 47°40' W 122°23'0 0.0
2016-Feb-01 17:33N 47°40' W 122°23'0 0.0
2016-Feb-01 16:33N 47°40' W 122°23'0 0.0
2016-Feb-01 15:34N 47°40' W 122°23'0 0.0
2016-Feb-01 14:33N 47°40' W 122°23'0 0.0
2016-Feb-01 13:31N 47°40' W 122°23'0 0.0
2016-Feb-01 12:33N 47°40' W 122°23'0 0.0
2016-Feb-01 11:33N 47°40' W 122°23'0 0.0
2016-Feb-01 10:33N 47°40' W 122°23'0 0.0
2016-Feb-01 09:33N 47°40' W 122°23'0 0.0
2016-Feb-01 08:33N 47°40' W 122°23'0 0.0
2016-Feb-01 07:33N 47°40' W 122°23'0 0.0
2016-Feb-01 06:33N 47°40' W 122°23'0 0.0
2016-Feb-01 05:33N 47°40' W 122°23'0 0.0
2016-Feb-01 04:31N 47°40' W 122°23'0 0.0
2016-Feb-01 03:33N 47°40' W 122°23'0 0.0
2016-Feb-01 02:33N 47°40' W 122°23'0 0.0
2016-Feb-01 01:33N 47°40' W 122°23'0 0.0
2016-Feb-01 00:33N 47°40' W 122°23'0 0.0
2016-Jan-31 23:33N 47°40' W 122°23'0 0.0
2016-Jan-31 22:33N 47°40' W 122°23'0 0.0
2016-Jan-31 21:33N 47°40' W 122°23'0 0.0
2016-Jan-31 20:33N 47°40' W 122°23'0 0.0
2016-Jan-31 19:33N 47°40' W 122°23'0 0.0
2016-Jan-31 18:33N 47°40' W 122°23'0 0.0
2016-Jan-31 17:33N 47°40' W 122°23'0 0.0
2016-Jan-31 16:33N 47°40' W 122°23'0 0.0
2016-Jan-31 15:33N 47°40' W 122°23'0 0.0
2016-Jan-31 14:33N 47°40' W 122°23'0 0.0
2016-Jan-31 13:33N 47°40' W 122°23'0 0.0
2016-Jan-31 12:33N 47°40' W 122°23'0 0.0
2016-Jan-31 11:33N 47°40' W 122°23'0 0.0
2016-Jan-31 10:33N 47°40' W 122°23'0 0.0
2016-Jan-31 09:33N 47°40' W 122°23'0 0.0
2016-Jan-31 08:33N 47°40' W 122°23'0 0.0
2016-Jan-31 07:33N 47°40' W 122°23'0 0.0
2016-Jan-31 06:33N 47°40' W 122°23'0 0.0
2016-Jan-31 05:33N 47°40' W 122°23'0 0.0
2016-Jan-31 04:33N 47°40' W 122°23'0 0.0
2016-Jan-31 03:33N 47°40' W 122°23'0 0.0
2016-Jan-31 02:33N 47°40' W 122°23'0 0.0
2016-Jan-31 01:33N 47°40' W 122°23'0 0.0
2016-Jan-31 00:33N 47°40' W 122°23'0 0.0
2016-Jan-30 23:33N 47°40' W 122°23'0 0.0
2016-Jan-30 22:33N 47°40' W 122°23'0 0.0
2016-Jan-30 21:33N 47°40' W 122°23'0 0.0
2016-Jan-30 20:33N 47°40' W 122°23'0 0.0
2016-Jan-30 19:33N 47°40' W 122°23'0 0.0
2016-Jan-30 18:33N 47°40' W 122°23'0 0.0
2016-Jan-30 17:31N 47°40' W 122°23'0 0.0
2016-Jan-30 16:33N 47°40' W 122°23'0 0.0
2016-Jan-30 15:33N 47°40' W 122°23'0 0.0
2016-Jan-30 14:33N 47°40' W 122°23'0 0.0
2016-Jan-30 13:33N 47°40' W 122°23'0 0.0
2016-Jan-30 12:33N 47°40' W 122°23'0 0.0
2016-Jan-30 11:33N 47°40' W 122°23'0 0.0
2016-Jan-30 10:34N 47°40' W 122°23'0 0.0
2016-Jan-30 09:33N 47°40' W 122°23'0 0.0
2016-Jan-30 08:33N 47°40' W 122°23'0 0.0
2016-Jan-30 07:33N 47°40' W 122°23'0 0.0
2016-Jan-30 06:34N 47°40' W 122°23'0 0.0
2016-Jan-30 05:33N 47°40' W 122°23'0 0.0
2016-Jan-30 04:33N 47°40' W 122°23'0 0.0
2016-Jan-30 03:33N 47°40' W 122°23'2 1.7
2016-Jan-30 02:33N 47°41' W 122°25'9 8.7
2016-Jan-30 01:33N 47°32' W 122°28'1312.0
2016-Jan-30 00:30N 47°19' W 122°29'3 2.9
2016-Jan-29 23:32N 47°22' W 122°28'0 0.1
2016-Jan-29 22:33N 47°22' W 122°28'3 2.7
2016-Jan-29 21:33N 47°23' W 122°32'1212.0
2016-Jan-29 20:33N 47°35' W 122°28'6 5.5
2016-Jan-29 19:33N 47°40' W 122°24'0 0.4
2016-Jan-29 18:32N 47°40' W 122°23'0 0.4
2016-Jan-29 17:33N 47°40' W 122°23'  

Dump ship's entire track history